UNNTUNKL

Guest
Details From UNNT - Novosibirsk Tolmachevo
To UNKL - YEMELYANOVO
Flight Number -
Tags decoded
Created
Modified
Stats Distance 346 nm / 640 km
Max Altitude 0 ft / 0 m
Waypoints 4
Social Downloads 3
Likes 0
Share VATSIM

Download

Looking for another format? Having issues loading an existing format? Contact us
Advertisement - Login to hide

Notes

Requested: UNNT ODIDA B926 KESED A309 ROTLI A300 RANET UNKL Unmatched points: ODIDA B926 A309 ROTLI A300

Route

UNNT KESED RANET UNKL

ID Type Via Altitude Latitude Longitude Leg Dist Tot Dist Heading (true) Name
O UNNT APT - 0 ft / 0 m 55.01302˚ 82.65107˚ - 0 nm - Novosibirsk Tolmachevo
KESED FIX - 0 ft / 0 m 55.27056˚ 86.10778˚ 119 nm 119 nm 81° / 84° -
RANET FIX - 0 ft / 0 m 56.28389˚ 91.13306˚ 180 nm 299 nm 68° / 72° -
O UNKL APT - 0 ft / 0 m 56.17295˚ 92.49328˚ 45 nm 345 nm 98° / 99° YEMELYANOVO

Altitude Profile

Advertisement - Login to hide

Weather


0- 5 10 15 20 25 30 35+ Temperature / ° C

Clouds and Precipitation
Forecast for 2018-05-21 12:00 UTC. Updated 3 hours ago

Ground ~20,000 ft ~40,000 ft Winds

UNNT

Details ICAO UNNT (OVB)
Name Novosibirsk Tolmachevo
Region Russia
Timezone Asia/Novosibirsk (UTC+7.0)
Stats Elevation 365 ft / 111 m (AMSL)
Location 55.013017° 82.651065°
Runways 2
Magnetic Variation 8.868° E

METAR

UNNT 211400Z 22007MPS 9999 BKN050CB 19/11 Q1008 R25/290160 R34/290160 NOSIG RMK QFE746/0995

Decode

TAF

TAF UNNT 211400Z 2115/2215 24007G12MPS 9999 BKN030CB TEMPO 2115/2118 29012G18MPS -TSRAGR BECMG 2118/2120 29003G08MPS BECMG 2201/2203 28008G14MPS

Decode

Departure Runways

ID Width Length Bearing (true) Bearing (mag) Surface Threshold Offset Overrun Length
07 190 ft / 58 m 11,817 ft / 3,602 m 81.00° 72.13° Asphalt 0 ft / 0 m 250 ft / 76 m
07L 304 ft / 93 m 9,877 ft / 3,011 m 81.01° 72.14° Grass 0 ft / 0 m 0 ft / 0 m
25 190 ft / 58 m 11,817 ft / 3,602 m 261.04° 252.17° Asphalt 0 ft / 0 m 225 ft / 69 m
25R 304 ft / 93 m 9,877 ft / 3,011 m 261.05° 252.18° Grass 0 ft / 0 m 0 ft / 0 m

UNKL

Details ICAO UNKL (KJA)
Name YEMELYANOVO
Region Russia
Timezone Asia/Krasnoyarsk (UTC+7.0)
Stats Elevation 942 ft / 287 m (AMSL)
Location 56.172946° 92.493276°
Runways 1
Magnetic Variation 4.106° E

METAR

UNKL 211400Z 20003MPS 160V250 9999 BKN049 09/03 Q1013 R29/CLRD65 NOSIG RMK QFE734

Decode

TAF

TAF UNKL 211400Z 2115/2215 22006G13MPS 9999 SCT020CB TEMPO 2115/2203 25012G18MPS 3100 -SHRA FEW005 BKN013CB FM220300 26008G15MPS 9000 -SHRA FEW006 BKN013CB TEMPO 2206/2209 27013G19MPS 3100 -SHRA BECMG 2212/2214 28003G10MPS

Decode

Destination Runways

ID Width Length Bearing (true) Bearing (mag) Surface Threshold Offset Overrun Length
11 197 ft / 60 m 12,113 ft / 3,692 m 113.16° 109.05° Asphalt 0 ft / 0 m 235 ft / 72 m
29 197 ft / 60 m 12,113 ft / 3,692 m 293.21° 289.10° Asphalt 0 ft / 0 m 215 ft / 66 m

Popular Alternatives